Bookmark and Share
Track history (hours):
 

Alumercia

Last reported at 2014-Mar-15 02:14 UTC. Time now 2014-Apr-23 07:08 UTC.
Position N 40°19' E 026°37'.
Warning: this ship's position is 39 days out of date.

Length 37 m; draft 2.6 m.

Type: Pleasure craft. MMSI: 306482000.

NotesDate/timePositionNaut miles runAvg speedWind from/ knotsBaromVisibWave heightAir tempDewpointWater temp
2014-Mar-15 02:14N 40°19' E 026°37'34 8.7
2014-Mar-14 22:18N 39°58' E 026°01'  
2014-Mar-07 21:31N 42°51' E 009°46'10 9.9
2014-Mar-07 20:32N 43°00' E 009°41'9 9.3
2014-Mar-07 19:32N 43°09' E 009°37'10 9.9
2014-Mar-07 18:33N 43°18' E 009°32'2110.6
2014-Mar-07 16:33N 43°37' E 009°20'1010.2
2014-Mar-07 15:33N 43°47' E 009°16'1010.1
2014-Mar-07 14:33N 43°55' E 009°08'1010.3
2014-Mar-07 13:33N 44°03' E 008°59'2110.3
2014-Mar-07 11:33N 44°24' E 008°56'1 0.3
2014-Mar-07 08:16N 44°25' E 008°55'0 0.0
2014-Mar-07 07:30N 44°25' E 008°55'0 0.0
2014-Mar-07 04:21N 44°25' E 008°55'0 0.0
2014-Mar-07 03:33N 44°25' E 008°55'0 0.0
2014-Mar-07 02:28N 44°25' E 008°55'0 0.0
2014-Mar-07 01:31N 44°25' E 008°55'0 0.0
2014-Mar-07 00:28N 44°25' E 008°55'0 0.0
2014-Mar-06 23:28N 44°25' E 008°55'0 0.0
2014-Mar-06 20:03N 44°25' E 008°55'0 0.0
2014-Mar-06 19:27N 44°25' E 008°55'0 0.0
2014-Mar-06 16:05N 44°25' E 008°55'0 0.0
2014-Mar-06 15:32N 44°25' E 008°55'0 0.0
2014-Mar-06 11:31N 44°25' E 008°55'0 0.0
2014-Mar-06 08:03N 44°25' E 008°55'0 0.0
2014-Mar-06 07:15N 44°25' E 008°55'0 0.0
2014-Mar-06 04:06N 44°25' E 008°55'0 0.0
2014-Mar-06 03:30N 44°25' E 008°55'0 0.0
2014-Mar-06 02:32N 44°25' E 008°55'0 0.0
2014-Mar-06 01:26N 44°25' E 008°55'0 0.0
2014-Mar-06 00:26N 44°25' E 008°55'0 0.0
2014-Mar-05 23:26N 44°25' E 008°55'0 0.0
2014-Mar-05 16:18N 44°25' E 008°55'0 0.0
2014-Mar-05 15:33N 44°25' E 008°55'0 0.0
2014-Mar-05 14:30N 44°25' E 008°55'0 0.0
2014-Mar-05 11:32N 44°25' E 008°55'0 0.0
2014-Mar-05 10:26N 44°25' E 008°55'0 0.0
2014-Mar-05 08:17N 44°25' E 008°55'0 0.0
2014-Mar-05 07:07N 44°25' E 008°55'0 0.0
2014-Mar-05 06:25N 44°25' E 008°55'0 0.0
2014-Mar-05 04:28N 44°25' E 008°55'0 0.0
2014-Mar-05 03:28N 44°25' E 008°55'0 0.0
2014-Mar-05 02:30N 44°25' E 008°55'  

Dump ship's entire track history

sailing weather and tide predictions

Alumercia — PJKT — position and weather